sensor_id;sensor_type;location;lat;lon;timestamp;P1;durP1;ratioP1;P2;durP2;ratioP2
80868;SDS011;70295;40.182;44.498;2023-06-10T00:01:17;5.9;;;4.1;;
80868;SDS011;70295;40.182;44.498;2023-06-10T00:03:17;6.2;;;4;;
80868;SDS011;70295;40.182;44.498;2023-06-10T00:05:17;6.5;;;3.5;;
80868;SDS011;70295;40.182;44.498;2023-06-10T00:06:48;9.1;;;4.6;;
80868;SDS011;70295;40.182;44.498;2023-06-10T00:08:48;6.6;;;4;;
80868;SDS011;70295;40.182;44.498;2023-06-10T00:10:48;6.9;;;4;;
80868;SDS011;70295;40.182;44.498;2023-06-10T00:12:48;7.2;;;3.8;;
80868;SDS011;70295;40.182;44.498;2023-06-10T00:14:48;7.1;;;4;;
80868;SDS011;70295;40.182;44.498;2023-06-10T00:16:48;6.2;;;3.9;;
80868;SDS011;70295;40.182;44.498;2023-06-10T00:18:49;6.7;;;4.3;;
80868;SDS011;70295;40.182;44.498;2023-06-10T00:20:48;6.2;;;4;;
80868;SDS011;70295;40.182;44.498;2023-06-10T00:22:05;7.6;;;3.9;;
80868;SDS011;70295;40.182;44.498;2023-06-10T00:24:05;8.7;;;3.6;;
80868;SDS011;70295;40.182;44.498;2023-06-10T00:26:04;7.4;;;3.9;;
80868;SDS011;70295;40.182;44.498;2023-06-10T00:28:04;6.8;;;3.8;;
80868;SDS011;70295;40.182;44.498;2023-06-10T00:30:05;7.7;;;3.4;;
80868;SDS011;70295;40.182;44.498;2023-06-10T00:32:05;6.6;;;3.7;;
80868;SDS011;70295;40.182;44.498;2023-06-10T00:34:04;8.1;;;3.9;;
80868;SDS011;70295;40.182;44.498;2023-06-10T00:36:04;9.9;;;3.9;;
80868;SDS011;70295;40.182;44.498;2023-06-10T00:38:04;6.7;;;3.3;;
80868;SDS011;70295;40.182;44.498;2023-06-10T00:40:05;7;;;3.5;;
80868;SDS011;70295;40.182;44.498;2023-06-10T00:42:05;9;;;4;;
80868;SDS011;70295;40.182;44.498;2023-06-10T00:44:04;8.5;;;4.1;;
80868;SDS011;70295;40.182;44.498;2023-06-10T00:46:04;7.1;;;4.1;;
80868;SDS011;70295;40.182;44.498;2023-06-10T00:48:04;7.1;;;4;;
80868;SDS011;70295;40.182;44.498;2023-06-10T00:50:05;7.5;;;4.3;;
80868;SDS011;70295;40.182;44.498;2023-06-10T00:52:05;6.8;;;4.1;;
80868;SDS011;70295;40.182;44.498;2023-06-10T00:54:04;6.5;;;3.9;;
80868;SDS011;70295;40.182;44.498;2023-06-10T00:56:04;7.9;;;4.1;;
80868;SDS011;70295;40.182;44.498;2023-06-10T00:58:04;9.5;;;4.2;;
80868;SDS011;70295;40.182;44.498;2023-06-10T01:00:05;7.7;;;4;;
80868;SDS011;70295;40.182;44.498;2023-06-10T01:02:04;5.7;;;4.1;;
80868;SDS011;70295;40.182;44.498;2023-06-10T01:04:04;8.4;;;4.5;;
80868;SDS011;70295;40.182;44.498;2023-06-10T01:10:24;7.4;;;4.3;;
80868;SDS011;70295;40.182;44.498;2023-06-10T01:13:39;9.1;;;4.7;;
80868;SDS011;70295;40.182;44.498;2023-06-10T01:15:38;7.6;;;4.3;;
80868;SDS011;70295;40.182;44.498;2023-06-10T01:19:08;7.9;;;5;;
80868;SDS011;70295;40.182;44.498;2023-06-10T01:21:08;8.9;;;5.1;;
80868;SDS011;70295;40.182;44.498;2023-06-10T01:23:09;10.2;;;5.2;;
80868;SDS011;70295;40.182;44.498;2023-06-10T01:25:08;7.3;;;4.7;;
80868;SDS011;70295;40.182;44.498;2023-06-10T01:27:12;8.3;;;4.4;;
80868;SDS011;70295;40.182;44.498;2023-06-10T01:29:38;10.7;;;4.6;;
80868;SDS011;70295;40.182;44.498;2023-06-10T01:33:14;9.3;;;5.2;;
80868;SDS011;70295;40.182;44.498;2023-06-10T01:34:33;8.7;;;5.1;;
80868;SDS011;70295;40.182;44.498;2023-06-10T01:36:33;6.6;;;4.3;;
80868;SDS011;70295;40.182;44.498;2023-06-10T01:38:37;8.3;;;4.6;;
80868;SDS011;70295;40.182;44.498;2023-06-10T01:39:47;7.6;;;4.9;;
80868;SDS011;70295;40.182;44.498;2023-06-10T01:41:47;7.6;;;4.7;;
80868;SDS011;70295;40.182;44.498;2023-06-10T01:43:47;8.2;;;4.7;;
80868;SDS011;70295;40.182;44.498;2023-06-10T01:45:46;7.9;;;4.6;;
80868;SDS011;70295;40.182;44.498;2023-06-10T01:47:46;9.6;;;4.8;;
80868;SDS011;70295;40.182;44.498;2023-06-10T01:49:46;9.8;;;4.3;;
80868;SDS011;70295;40.182;44.498;2023-06-10T01:51:46;8.2;;;5.1;;
80868;SDS011;70295;40.182;44.498;2023-06-10T01:53:46;7.5;;;4.4;;
80868;SDS011;70295;40.182;44.498;2023-06-10T01:55:46;9.1;;;4.6;;
80868;SDS011;70295;40.182;44.498;2023-06-10T01:57:46;8.1;;;4.4;;
80868;SDS011;70295;40.182;44.498;2023-06-10T01:59:46;9;;;5.5;;
80868;SDS011;70295;40.182;44.498;2023-06-10T02:01:46;7.8;;;4.8;;
80868;SDS011;70295;40.182;44.498;2023-06-10T02:03:46;10.7;;;5.5;;
80868;SDS011;70295;40.182;44.498;2023-06-10T02:05:46;9.5;;;5.6;;
80868;SDS011;70295;40.182;44.498;2023-06-10T02:07:46;11;;;6.4;;
80868;SDS011;70295;40.182;44.498;2023-06-10T02:09:46;9.6;;;6;;
80868;SDS011;70295;40.182;44.498;2023-06-10T02:11:46;12.2;;;6.7;;
80868;SDS011;70295;40.182;44.498;2023-06-10T02:13:46;12.4;;;6.6;;
80868;SDS011;70295;40.182;44.498;2023-06-10T02:15:46;12.5;;;6.5;;
80868;SDS011;70295;40.182;44.498;2023-06-10T02:17:46;10.2;;;6;;
80868;SDS011;70295;40.182;44.498;2023-06-10T02:19:46;11.2;;;6.7;;
80868;SDS011;70295;40.182;44.498;2023-06-10T02:21:46;13;;;6.8;;
80868;SDS011;70295;40.182;44.498;2023-06-10T02:23:46;9.3;;;5.9;;
80868;SDS011;70295;40.182;44.498;2023-06-10T02:25:46;12.9;;;6.6;;
80868;SDS011;70295;40.182;44.498;2023-06-10T02:27:46;12.1;;;6.5;;
80868;SDS011;70295;40.182;44.498;2023-06-10T02:29:46;15.5;;;6.7;;
80868;SDS011;70295;40.182;44.498;2023-06-10T02:31:46;12.8;;;6.3;;
80868;SDS011;70295;40.182;44.498;2023-06-10T02:33:46;11.4;;;6.7;;
80868;SDS011;70295;40.182;44.498;2023-06-10T02:35:46;12.2;;;6.4;;
80868;SDS011;70295;40.182;44.498;2023-06-10T02:37:46;10.4;;;6.9;;
80868;SDS011;70295;40.182;44.498;2023-06-10T02:39:46;10.3;;;6.6;;
80868;SDS011;70295;40.182;44.498;2023-06-10T02:41:46;12.1;;;7.1;;
80868;SDS011;70295;40.182;44.498;2023-06-10T02:43:46;10.8;;;6.1;;
80868;SDS011;70295;40.182;44.498;2023-06-10T02:45:46;11.7;;;6.7;;
80868;SDS011;70295;40.182;44.498;2023-06-10T02:47:46;11.2;;;6.7;;
80868;SDS011;70295;40.182;44.498;2023-06-10T02:49:46;11.7;;;7.1;;
80868;SDS011;70295;40.182;44.498;2023-06-10T02:51:46;10.7;;;6.2;;
80868;SDS011;70295;40.182;44.498;2023-06-10T02:53:46;11.1;;;6.7;;
80868;SDS011;70295;40.182;44.498;2023-06-10T02:55:46;13.5;;;6.9;;
80868;SDS011;70295;40.182;44.498;2023-06-10T02:57:46;14.7;;;7.1;;
80868;SDS011;70295;40.182;44.498;2023-06-10T02:59:46;11.4;;;7;;
80868;SDS011;70295;40.182;44.498;2023-06-10T03:01:46;10.4;;;6.6;;
80868;SDS011;70295;40.182;44.498;2023-06-10T03:03:46;10;;;5.6;;
80868;SDS011;70295;40.182;44.498;2023-06-10T03:05:46;9.3;;;5.3;;
80868;SDS011;70295;40.182;44.498;2023-06-10T03:07:46;10.7;;;5.3;;
80868;SDS011;70295;40.182;44.498;2023-06-10T03:09:46;7.4;;;4.7;;
80868;SDS011;70295;40.182;44.498;2023-06-10T03:11:46;9.3;;;5.2;;
80868;SDS011;70295;40.182;44.498;2023-06-10T03:13:46;9.8;;;4.8;;
80868;SDS011;70295;40.182;44.498;2023-06-10T03:15:46;11.3;;;5.1;;
80868;SDS011;70295;40.182;44.498;2023-06-10T03:17:46;12.2;;;5.4;;
80868;SDS011;70295;40.182;44.498;2023-06-10T03:19:46;10.9;;;5.7;;
80868;SDS011;70295;40.182;44.498;2023-06-10T03:21:50;10.8;;;5.4;;
80868;SDS011;70295;40.182;44.498;2023-06-10T03:23:14;13.6;;;5.9;;
80868;SDS011;70295;40.182;44.498;2023-06-10T03:25:14;13.6;;;5.9;;
80868;SDS011;70295;40.182;44.498;2023-06-10T03:27:15;14.4;;;6.8;;
80868;SDS011;70295;40.182;44.498;2023-06-10T03:29:14;13.6;;;6.5;;
80868;SDS011;70295;40.182;44.498;2023-06-10T03:31:14;10.9;;;5.9;;
80868;SDS011;70295;40.182;44.498;2023-06-10T03:33:14;12.3;;;6;;
80868;SDS011;70295;40.182;44.498;2023-06-10T03:35:15;11.3;;;6;;
80868;SDS011;70295;40.182;44.498;2023-06-10T03:37:14;13;;;6.7;;
80868;SDS011;70295;40.182;44.498;2023-06-10T03:39:14;14;;;5.9;;
80868;SDS011;70295;40.182;44.498;2023-06-10T03:41:14;11;;;5.6;;
80868;SDS011;70295;40.182;44.498;2023-06-10T03:43:14;11.4;;;5.7;;
80868;SDS011;70295;40.182;44.498;2023-06-10T03:45:14;10;;;5.1;;
80868;SDS011;70295;40.182;44.498;2023-06-10T03:47:14;13.1;;;5.9;;
80868;SDS011;70295;40.182;44.498;2023-06-10T03:49:14;11.5;;;5.5;;
80868;SDS011;70295;40.182;44.498;2023-06-10T03:51:14;9.4;;;5.1;;
80868;SDS011;70295;40.182;44.498;2023-06-10T03:53:14;9.3;;;4.5;;
80868;SDS011;70295;40.182;44.498;2023-06-10T03:55:14;12.1;;;5.2;;
80868;SDS011;70295;40.182;44.498;2023-06-10T03:57:14;10.4;;;4.7;;
80868;SDS011;70295;40.182;44.498;2023-06-10T03:59:14;9;;;4.5;;
80868;SDS011;70295;40.182;44.498;2023-06-10T04:01:14;9.5;;;5.2;;
80868;SDS011;70295;40.182;44.498;2023-06-10T04:03:14;11;;;4.5;;
80868;SDS011;70295;40.182;44.498;2023-06-10T04:05:16;8.8;;;3.8;;
80868;SDS011;70295;40.182;44.498;2023-06-10T04:07:14;6.4;;;3.4;;
80868;SDS011;70295;40.182;44.498;2023-06-10T04:09:15;7.8;;;3.6;;
80868;SDS011;70295;40.182;44.498;2023-06-10T04:11:14;6.7;;;3.3;;
80868;SDS011;70295;40.182;44.498;2023-06-10T04:13:14;8.1;;;3.4;;
80868;SDS011;70295;40.182;44.498;2023-06-10T04:15:14;6.2;;;3.1;;
80868;SDS011;70295;40.182;44.498;2023-06-10T04:17:14;8.1;;;3.3;;
80868;SDS011;70295;40.182;44.498;2023-06-10T04:19:14;6.3;;;3;;
80868;SDS011;70295;40.182;44.498;2023-06-10T04:21:14;7.3;;;3.9;;
80868;SDS011;70295;40.182;44.498;2023-06-10T04:23:14;7.2;;;3.3;;
80868;SDS011;70295;40.182;44.498;2023-06-10T04:25:15;5.8;;;3.1;;
80868;SDS011;70295;40.182;44.498;2023-06-10T04:27:14;5.9;;;3;;
80868;SDS011;70295;40.182;44.498;2023-06-10T04:29:14;6.2;;;3.2;;
80868;SDS011;70295;40.182;44.498;2023-06-10T04:31:14;7.6;;;3.3;;
80868;SDS011;70295;40.182;44.498;2023-06-10T04:33:14;6.7;;;3.5;;
80868;SDS011;70295;40.182;44.498;2023-06-10T04:35:15;8.2;;;3.5;;
80868;SDS011;70295;40.182;44.498;2023-06-10T04:37:14;7;;;3.3;;
80868;SDS011;70295;40.182;44.498;2023-06-10T04:39:14;7.3;;;3.6;;
80868;SDS011;70295;40.182;44.498;2023-06-10T04:41:14;8.4;;;3.2;;
80868;SDS011;70295;40.182;44.498;2023-06-10T04:43:14;8.8;;;3.5;;
80868;SDS011;70295;40.182;44.498;2023-06-10T04:45:14;8.7;;;3.5;;
80868;SDS011;70295;40.182;44.498;2023-06-10T04:47:14;8.3;;;3.3;;
80868;SDS011;70295;40.182;44.498;2023-06-10T04:49:14;8.5;;;2.7;;
80868;SDS011;70295;40.182;44.498;2023-06-10T04:51:14;7.2;;;3.6;;
80868;SDS011;70295;40.182;44.498;2023-06-10T04:53:14;8;;;3.1;;
80868;SDS011;70295;40.182;44.498;2023-06-10T04:55:15;5.8;;;3.2;;
80868;SDS011;70295;40.182;44.498;2023-06-10T04:57:14;9.5;;;3.8;;
80868;SDS011;70295;40.182;44.498;2023-06-10T04:59:14;10.6;;;3.7;;
80868;SDS011;70295;40.182;44.498;2023-06-10T05:01:14;7.1;;;3.8;;
80868;SDS011;70295;40.182;44.498;2023-06-10T05:03:14;7.9;;;3.5;;
80868;SDS011;70295;40.182;44.498;2023-06-10T05:05:14;10.4;;;4.2;;
80868;SDS011;70295;40.182;44.498;2023-06-10T05:07:14;10.3;;;4.5;;
80868;SDS011;70295;40.182;44.498;2023-06-10T05:09:14;11.8;;;4.7;;
80868;SDS011;70295;40.182;44.498;2023-06-10T05:11:14;11.6;;;4.9;;
80868;SDS011;70295;40.182;44.498;2023-06-10T05:13:16;9.8;;;4;;
80868;SDS011;70295;40.182;44.498;2023-06-10T05:15:14;8.9;;;4.2;;
80868;SDS011;70295;40.182;44.498;2023-06-10T05:17:14;12.2;;;4.5;;
80868;SDS011;70295;40.182;44.498;2023-06-10T05:19:14;15.1;;;4.2;;
80868;SDS011;70295;40.182;44.498;2023-06-10T05:21:14;15.2;;;4.2;;
80868;SDS011;70295;40.182;44.498;2023-06-10T05:23:14;12.9;;;4.3;;
80868;SDS011;70295;40.182;44.498;2023-06-10T05:25:14;10.2;;;4.8;;
80868;SDS011;70295;40.182;44.498;2023-06-10T05:27:14;12.3;;;5.1;;
80868;SDS011;70295;40.182;44.498;2023-06-10T05:29:14;33.4;;;8.4;;
80868;SDS011;70295;40.182;44.498;2023-06-10T05:31:14;105.5;;;16.4;;
80868;SDS011;70295;40.182;44.498;2023-06-10T05:33:14;12.2;;;4.5;;
80868;SDS011;70295;40.182;44.498;2023-06-10T05:35:14;9.5;;;4.3;;
80868;SDS011;70295;40.182;44.498;2023-06-10T05:37:14;9.1;;;4.6;;
80868;SDS011;70295;40.182;44.498;2023-06-10T05:39:14;9.5;;;4.1;;
80868;SDS011;70295;40.182;44.498;2023-06-10T05:41:14;8;;;3.5;;
80868;SDS011;70295;40.182;44.498;2023-06-10T05:43:14;10.5;;;4.5;;
80868;SDS011;70295;40.182;44.498;2023-06-10T05:45:14;11;;;5.1;;
80868;SDS011;70295;40.182;44.498;2023-06-10T05:47:14;12.8;;;4.6;;
80868;SDS011;70295;40.182;44.498;2023-06-10T05:49:14;10.8;;;4.7;;
80868;SDS011;70295;40.182;44.498;2023-06-10T05:51:14;9.6;;;4.8;;
80868;SDS011;70295;40.182;44.498;2023-06-10T05:53:15;8.8;;;4.6;;
80868;SDS011;70295;40.182;44.498;2023-06-10T05:55:14;7.8;;;4.4;;
80868;SDS011;70295;40.182;44.498;2023-06-10T05:57:14;8.6;;;4.8;;
80868;SDS011;70295;40.182;44.498;2023-06-10T05:59:14;7.1;;;4.3;;
80868;SDS011;70295;40.182;44.498;2023-06-10T06:01:14;9.7;;;4.4;;
80868;SDS011;70295;40.182;44.498;2023-06-10T06:03:14;7.3;;;4.3;;
80868;SDS011;70295;40.182;44.498;2023-06-10T06:05:14;9;;;4.3;;
80868;SDS011;70295;40.182;44.498;2023-06-10T06:07:14;9.2;;;4.3;;
80868;SDS011;70295;40.182;44.498;2023-06-10T06:09:14;7.8;;;4;;
80868;SDS011;70295;40.182;44.498;2023-06-10T06:11:14;7.8;;;4.2;;
80868;SDS011;70295;40.182;44.498;2023-06-10T06:13:14;10.7;;;4.8;;
80868;SDS011;70295;40.182;44.498;2023-06-10T06:15:14;9.9;;;4.8;;
80868;SDS011;70295;40.182;44.498;2023-06-10T06:17:14;7.4;;;4.1;;
80868;SDS011;70295;40.182;44.498;2023-06-10T06:19:14;9.2;;;4.8;;
80868;SDS011;70295;40.182;44.498;2023-06-10T06:21:14;10.4;;;4.1;;
80868;SDS011;70295;40.182;44.498;2023-06-10T06:23:14;7.5;;;4.3;;
80868;SDS011;70295;40.182;44.498;2023-06-10T06:25:14;9.1;;;4.2;;
80868;SDS011;70295;40.182;44.498;2023-06-10T06:27:14;8.1;;;4;;
80868;SDS011;70295;40.182;44.498;2023-06-10T06:29:14;8;;;3.2;;
80868;SDS011;70295;40.182;44.498;2023-06-10T06:31:14;7.5;;;3.9;;
80868;SDS011;70295;40.182;44.498;2023-06-10T06:33:14;9.1;;;4.6;;
80868;SDS011;70295;40.182;44.498;2023-06-10T06:35:14;9.6;;;4.4;;
80868;SDS011;70295;40.182;44.498;2023-06-10T06:37:14;7.8;;;4.2;;
80868;SDS011;70295;40.182;44.498;2023-06-10T06:39:14;9.3;;;5.1;;
80868;SDS011;70295;40.182;44.498;2023-06-10T06:41:14;10.3;;;4.6;;
80868;SDS011;70295;40.182;44.498;2023-06-10T06:43:14;7.6;;;3.8;;
80868;SDS011;70295;40.182;44.498;2023-06-10T06:45:14;9.4;;;4.3;;
80868;SDS011;70295;40.182;44.498;2023-06-10T06:47:14;9.1;;;3.9;;
80868;SDS011;70295;40.182;44.498;2023-06-10T06:49:14;6.7;;;3.5;;
80868;SDS011;70295;40.182;44.498;2023-06-10T06:51:14;7.5;;;3.8;;
80868;SDS011;70295;40.182;44.498;2023-06-10T06:53:14;7.3;;;3.7;;
80868;SDS011;70295;40.182;44.498;2023-06-10T06:55:14;8.1;;;3.3;;
80868;SDS011;70295;40.182;44.498;2023-06-10T06:57:14;9.7;;;3.6;;
80868;SDS011;70295;40.182;44.498;2023-06-10T06:59:14;5.8;;;3.3;;
80868;SDS011;70295;40.182;44.498;2023-06-10T07:01:14;8.3;;;3.9;;
80868;SDS011;70295;40.182;44.498;2023-06-10T07:03:14;6.6;;;3.2;;
80868;SDS011;70295;40.182;44.498;2023-06-10T07:05:14;5.9;;;3.1;;
80868;SDS011;70295;40.182;44.498;2023-06-10T07:07:14;5;;;3.1;;
80868;SDS011;70295;40.182;44.498;2023-06-10T07:09:14;8.3;;;3.3;;
80868;SDS011;70295;40.182;44.498;2023-06-10T07:11:14;6.3;;;3.7;;
80868;SDS011;70295;40.182;44.498;2023-06-10T07:13:14;8.5;;;3.6;;
80868;SDS011;70295;40.182;44.498;2023-06-10T07:15:14;7.7;;;3.3;;
80868;SDS011;70295;40.182;44.498;2023-06-10T07:17:14;7.4;;;3.7;;
80868;SDS011;70295;40.182;44.498;2023-06-10T07:19:14;6.6;;;3.4;;
80868;SDS011;70295;40.182;44.498;2023-06-10T07:21:14;42.9;;;7;;
80868;SDS011;70295;40.182;44.498;2023-06-10T07:23:14;38.7;;;6.5;;
80868;SDS011;70295;40.182;44.498;2023-06-10T07:25:14;7.6;;;3.5;;
80868;SDS011;70295;40.182;44.498;2023-06-10T07:27:14;7.7;;;3.3;;
80868;SDS011;70295;40.182;44.498;2023-06-10T07:29:14;7.3;;;3.4;;
80868;SDS011;70295;40.182;44.498;2023-06-10T07:31:14;10.5;;;3.4;;
80868;SDS011;70295;40.182;44.498;2023-06-10T07:33:14;14.5;;;4;;
80868;SDS011;70295;40.182;44.498;2023-06-10T07:35:14;22.1;;;5.2;;
80868;SDS011;70295;40.182;44.498;2023-06-10T07:37:14;7.8;;;3.2;;
80868;SDS011;70295;40.182;44.498;2023-06-10T07:39:14;6.2;;;3.6;;
80868;SDS011;70295;40.182;44.498;2023-06-10T07:41:14;7.7;;;3.8;;
80868;SDS011;70295;40.182;44.498;2023-06-10T07:43:14;6.7;;;3.5;;
80868;SDS011;70295;40.182;44.498;2023-06-10T07:45:14;11.2;;;3.4;;
80868;SDS011;70295;40.182;44.498;2023-06-10T07:47:14;15.4;;;3.9;;
80868;SDS011;70295;40.182;44.498;2023-06-10T07:49:14;8.1;;;3.5;;
80868;SDS011;70295;40.182;44.498;2023-06-10T07:51:16;9;;;3.6;;
80868;SDS011;70295;40.182;44.498;2023-06-10T07:53:14;7;;;3.3;;
80868;SDS011;70295;40.182;44.498;2023-06-10T07:55:14;6.2;;;2.9;;
80868;SDS011;70295;40.182;44.498;2023-06-10T07:57:15;9;;;3.7;;
80868;SDS011;70295;40.182;44.498;2023-06-10T07:59:14;6.8;;;3.3;;
80868;SDS011;70295;40.182;44.498;2023-06-10T08:01:14;9.5;;;3.6;;
80868;SDS011;70295;40.182;44.498;2023-06-10T08:03:14;11.8;;;3.9;;
80868;SDS011;70295;40.182;44.498;2023-06-10T08:05:14;15;;;4.5;;
80868;SDS011;70295;40.182;44.498;2023-06-10T08:07:14;7.6;;;4.1;;
80868;SDS011;70295;40.182;44.498;2023-06-10T08:09:14;8;;;4.5;;
80868;SDS011;70295;40.182;44.498;2023-06-10T08:11:14;7.7;;;3.8;;
80868;SDS011;70295;40.182;44.498;2023-06-10T08:13:14;6.5;;;3.6;;
80868;SDS011;70295;40.182;44.498;2023-06-10T08:15:14;7.6;;;3.8;;
80868;SDS011;70295;40.182;44.498;2023-06-10T08:17:14;7.1;;;3.7;;
80868;SDS011;70295;40.182;44.498;2023-06-10T08:19:14;13.5;;;4.4;;
80868;SDS011;70295;40.182;44.498;2023-06-10T08:21:14;9.6;;;3.8;;
80868;SDS011;70295;40.182;44.498;2023-06-10T08:23:14;10.8;;;4.5;;
80868;SDS011;70295;40.182;44.498;2023-06-10T08:25:14;10;;;4.2;;
80868;SDS011;70295;40.182;44.498;2023-06-10T08:27:14;8.4;;;3.8;;
80868;SDS011;70295;40.182;44.498;2023-06-10T08:29:14;9.3;;;4.2;;
80868;SDS011;70295;40.182;44.498;2023-06-10T08:31:14;9.3;;;4.3;;
80868;SDS011;70295;40.182;44.498;2023-06-10T08:33:14;7.6;;;3.7;;
80868;SDS011;70295;40.182;44.498;2023-06-10T08:35:14;10.6;;;4.3;;
80868;SDS011;70295;40.182;44.498;2023-06-10T08:37:14;10.1;;;3.9;;
80868;SDS011;70295;40.182;44.498;2023-06-10T08:39:14;6.4;;;3.9;;
80868;SDS011;70295;40.182;44.498;2023-06-10T08:41:17;11.5;;;4;;
80868;SDS011;70295;40.182;44.498;2023-06-10T08:44:32;7.6;;;3.3;;
80868;SDS011;70295;40.182;44.498;2023-06-10T08:46:33;7.9;;;3.6;;
80868;SDS011;70295;40.182;44.498;2023-06-10T08:48:35;7.3;;;3.4;;
80868;SDS011;70295;40.182;44.498;2023-06-10T08:49:43;5.7;;;3.7;;
80868;SDS011;70295;40.182;44.498;2023-06-10T08:51:17;8.9;;;3.7;;
80868;SDS011;70295;40.182;44.498;2023-06-10T08:53:18;11.9;;;4.6;;
80868;SDS011;70295;40.182;44.498;2023-06-10T08:57:18;8.5;;;4.5;;
80868;SDS011;70295;40.182;44.498;2023-06-10T08:59:18;6.4;;;3.5;;
80868;SDS011;70295;40.182;44.498;2023-06-10T09:01:17;8.8;;;4.3;;
80868;SDS011;70295;40.182;44.498;2023-06-10T09:03:18;6.6;;;3.5;;
80868;SDS011;70295;40.182;44.498;2023-06-10T09:05:17;6.3;;;3.4;;
80868;SDS011;70295;40.182;44.498;2023-06-10T09:07:17;6;;;3.9;;
80868;SDS011;70295;40.182;44.498;2023-06-10T09:09:18;7.2;;;3.7;;
80868;SDS011;70295;40.182;44.498;2023-06-10T09:11:17;8.7;;;4;;
80868;SDS011;70295;40.182;44.498;2023-06-10T09:13:17;7.7;;;3.8;;
80868;SDS011;70295;40.182;44.498;2023-06-10T09:15:17;7.7;;;4.6;;
80868;SDS011;70295;40.182;44.498;2023-06-10T09:17:17;7.1;;;3.7;;
80868;SDS011;70295;40.182;44.498;2023-06-10T09:19:17;8.4;;;3.8;;
80868;SDS011;70295;40.182;44.498;2023-06-10T09:21:17;8.7;;;4.5;;
80868;SDS011;70295;40.182;44.498;2023-06-10T09:23:17;10.2;;;4.4;;
80868;SDS011;70295;40.182;44.498;2023-06-10T09:25:17;9.8;;;4.1;;
80868;SDS011;70295;40.182;44.498;2023-06-10T09:27:17;7.8;;;3.9;;
80868;SDS011;70295;40.182;44.498;2023-06-10T09:29:17;8.6;;;4.3;;
80868;SDS011;70295;40.182;44.498;2023-06-10T09:31:17;7.7;;;3.8;;
80868;SDS011;70295;40.182;44.498;2023-06-10T09:33:00;9.7;;;3.8;;
80868;SDS011;70295;40.182;44.498;2023-06-10T09:34:57;7;;;3.8;;
80868;SDS011;70295;40.182;44.498;2023-06-10T09:36:58;6.3;;;3.4;;
80868;SDS011;70295;40.182;44.498;2023-06-10T09:38:57;8.3;;;4.8;;
80868;SDS011;70295;40.182;44.498;2023-06-10T09:40:58;10.3;;;4.1;;
80868;SDS011;70295;40.182;44.498;2023-06-10T09:43:00;7.2;;;3.3;;
80868;SDS011;70295;40.182;44.498;2023-06-10T09:44:57;7.5;;;3.2;;
80868;SDS011;70295;40.182;44.498;2023-06-10T09:46:57;18.8;;;4.3;;
80868;SDS011;70295;40.182;44.498;2023-06-10T09:48:57;29.4;;;4.7;;
80868;SDS011;70295;40.182;44.498;2023-06-10T09:50:57;11.8;;;3.1;;
80868;SDS011;70295;40.182;44.498;2023-06-10T09:52:57;6.8;;;2.8;;
80868;SDS011;70295;40.182;44.498;2023-06-10T09:55:01;7.3;;;3.4;;
80868;SDS011;70295;40.182;44.498;2023-06-10T09:57:39;7.8;;;3;;
80868;SDS011;70295;40.182;44.498;2023-06-10T09:59:38;8.9;;;3.9;;
80868;SDS011;70295;40.182;44.498;2023-06-10T10:01:38;6.6;;;3.6;;
80868;SDS011;70295;40.182;44.498;2023-06-10T10:06:18;11;;;4.4;;
80868;SDS011;70295;40.182;44.498;2023-06-10T10:08:16;9.3;;;4.3;;
80868;SDS011;70295;40.182;44.498;2023-06-10T10:10:17;8.2;;;3.8;;
80868;SDS011;70295;40.182;44.498;2023-06-10T10:12:16;11.1;;;4.4;;
80868;SDS011;70295;40.182;44.498;2023-06-10T10:14:16;9.6;;;4.4;;
80868;SDS011;70295;40.182;44.498;2023-06-10T10:18:14;11.3;;;4.6;;
80868;SDS011;70295;40.182;44.498;2023-06-10T10:20:02;7.8;;;4.5;;
80868;SDS011;70295;40.182;44.498;2023-06-10T10:21:53;9.1;;;4.8;;
80868;SDS011;70295;40.182;44.498;2023-06-10T10:25:34;11.9;;;4.4;;
80868;SDS011;70295;40.182;44.498;2023-06-10T10:26:54;10.5;;;4.2;;
80868;SDS011;70295;40.182;44.498;2023-06-10T10:28:11;8.5;;;4.1;;
80868;SDS011;70295;40.182;44.498;2023-06-10T10:30:11;8.1;;;3.8;;
80868;SDS011;70295;40.182;44.498;2023-06-10T10:32:12;9;;;4;;
80868;SDS011;70295;40.182;44.498;2023-06-10T10:34:15;10.9;;;4.3;;
80868;SDS011;70295;40.182;44.498;2023-06-10T10:35:22;5.9;;;3.5;;
80868;SDS011;70295;40.182;44.498;2023-06-10T10:37:22;8.3;;;3.9;;
80868;SDS011;70295;40.182;44.498;2023-06-10T10:39:22;56.4;;;11.6;;
80868;SDS011;70295;40.182;44.498;2023-06-10T10:41:23;21.8;;;5.1;;
80868;SDS011;70295;40.182;44.498;2023-06-10T10:43:22;10.1;;;4.2;;
80868;SDS011;70295;40.182;44.498;2023-06-10T10:45:22;7.5;;;3.8;;
80868;SDS011;70295;40.182;44.498;2023-06-10T10:47:22;34.8;;;7;;
80868;SDS011;70295;40.182;44.498;2023-06-10T10:49:22;8.2;;;3.9;;
80868;SDS011;70295;40.182;44.498;2023-06-10T10:51:23;9.8;;;4.2;;
80868;SDS011;70295;40.182;44.498;2023-06-10T10:53:22;9.5;;;3.9;;
80868;SDS011;70295;40.182;44.498;2023-06-10T10:55:24;9.1;;;3.9;;
80868;SDS011;70295;40.182;44.498;2023-06-10T10:57:23;8.6;;;3.5;;
80868;SDS011;70295;40.182;44.498;2023-06-10T10:59:21;8.2;;;3.4;;
80868;SDS011;70295;40.182;44.498;2023-06-10T11:01:22;10.2;;;3.4;;
80868;SDS011;70295;40.182;44.498;2023-06-10T11:03:21;12;;;3.8;;
80868;SDS011;70295;40.182;44.498;2023-06-10T11:06:52;42.3;;;8.1;;
80868;SDS011;70295;40.182;44.498;2023-06-10T11:07:54;17.2;;;4.9;;
80868;SDS011;70295;40.182;44.498;2023-06-10T11:13:19;8;;;3.6;;
80868;SDS011;70295;40.182;44.498;2023-06-10T11:14:55;12.6;;;3.8;;
80868;SDS011;70295;40.182;44.498;2023-06-10T11:16:52;12;;;4;;
80868;SDS011;70295;40.182;44.498;2023-06-10T13:57:01;5.6;;;1.9;;
80868;SDS011;70295;40.182;44.498;2023-06-10T13:59:01;8.5;;;3.7;;
80868;SDS011;70295;40.182;44.498;2023-06-10T14:01:01;8.4;;;3.5;;
80868;SDS011;70295;40.182;44.498;2023-06-10T14:03:01;8.4;;;3.1;;
80868;SDS011;70295;40.182;44.498;2023-06-10T14:05:01;6.9;;;2.9;;
80868;SDS011;70295;40.182;44.498;2023-06-10T14:07:01;8.3;;;3.1;;
80868;SDS011;70295;40.182;44.498;2023-06-10T14:09:01;8.1;;;3.1;;
80868;SDS011;70295;40.182;44.498;2023-06-10T14:11:02;7.6;;;2.7;;
80868;SDS011;70295;40.182;44.498;2023-06-10T14:13:01;11.2;;;4.1;;
80868;SDS011;70295;40.182;44.498;2023-06-10T14:15:01;8.3;;;3;;
80868;SDS011;70295;40.182;44.498;2023-06-10T14:17:01;7.6;;;2.8;;
80868;SDS011;70295;40.182;44.498;2023-06-10T14:19:01;7.6;;;3.2;;
80868;SDS011;70295;40.182;44.498;2023-06-10T14:21:01;7.5;;;3.1;;
80868;SDS011;70295;40.182;44.498;2023-06-10T14:23:01;7.2;;;3.6;;
80868;SDS011;70295;40.182;44.498;2023-06-10T14:25:01;7.1;;;3.2;;
80868;SDS011;70295;40.182;44.498;2023-06-10T14:27:01;7.1;;;3.2;;
80868;SDS011;70295;40.182;44.498;2023-06-10T14:29:01;6.5;;;3.1;;
80868;SDS011;70295;40.182;44.498;2023-06-10T14:31:01;6.5;;;3.2;;
80868;SDS011;70295;40.182;44.498;2023-06-10T14:33:01;6.3;;;2.8;;
80868;SDS011;70295;40.182;44.498;2023-06-10T14:35:01;8.6;;;4.3;;
80868;SDS011;70295;40.182;44.498;2023-06-10T14:37:01;8.7;;;5.6;;
80868;SDS011;70295;40.182;44.498;2023-06-10T14:38:46;10.6;;;5.3;;
80868;SDS011;70295;40.182;44.498;2023-06-10T14:40:46;16.1;;;6.7;;
80868;SDS011;70295;40.182;44.498;2023-06-10T14:42:46;14;;;6.3;;
80868;SDS011;70295;40.182;44.498;2023-06-10T14:44:46;9.6;;;5.8;;
80868;SDS011;70295;40.182;44.498;2023-06-10T14:46:46;11.2;;;5.9;;
80868;SDS011;70295;40.182;44.498;2023-06-10T14:48:46;11.7;;;6.6;;
80868;SDS011;70295;40.182;44.498;2023-06-10T14:50:46;12.2;;;6.1;;
80868;SDS011;70295;40.182;44.498;2023-06-10T14:52:43;15.1;;;7.7;;
80868;SDS011;70295;40.182;44.498;2023-06-10T14:54:43;12.6;;;7.3;;
80868;SDS011;70295;40.182;44.498;2023-06-10T14:56:43;14.2;;;7.5;;
80868;SDS011;70295;40.182;44.498;2023-06-10T14:58:43;11.1;;;6.2;;
80868;SDS011;70295;40.182;44.498;2023-06-10T15:00:43;11.3;;;6.8;;
80868;SDS011;70295;40.182;44.498;2023-06-10T15:02:43;9.5;;;5.6;;
80868;SDS011;70295;40.182;44.498;2023-06-10T15:04:43;12.9;;;6.8;;
80868;SDS011;70295;40.182;44.498;2023-06-10T15:06:43;13.4;;;7.4;;